createdAt,value
2023-03-28T00:02:53.924Z,2.90
2023-03-28T00:09:37.451Z,2.80
2023-03-28T00:16:19.774Z,2.80
2023-03-28T00:23:04.036Z,2.70
2023-03-28T00:29:46.288Z,2.60
2023-03-28T00:36:32.434Z,2.60
2023-03-28T00:43:15.044Z,2.60
2023-03-28T00:50:03.443Z,2.50
2023-03-28T00:56:48.863Z,2.50
2023-03-28T01:03:34.942Z,2.60
2023-03-28T01:10:21.893Z,2.60
2023-03-28T01:17:04.689Z,2.50
2023-03-28T01:23:47.421Z,2.50
2023-03-28T01:30:47.296Z,2.40
2023-03-28T01:38:13.467Z,2.40
2023-03-28T01:45:14.970Z,2.40
2023-03-28T01:52:18.121Z,2.30
2023-03-28T01:59:15.743Z,2.30
2023-03-28T02:06:17.876Z,2.20
2023-03-28T02:13:14.303Z,2.20
2023-03-28T02:20:08.925Z,2.20
2023-03-28T02:27:09.949Z,2.10
2023-03-28T02:34:11.889Z,2.10
2023-03-28T02:41:06.320Z,2.10
2023-03-28T02:47:59.666Z,2.00
2023-03-28T02:55:03.151Z,1.90
2023-03-28T03:01:52.338Z,1.90
2023-03-28T03:08:35.050Z,1.90
2023-03-28T03:15:17.601Z,1.90
2023-03-28T03:22:11.416Z,1.90
2023-03-28T03:29:06.089Z,1.80
2023-03-28T03:35:48.593Z,1.80
2023-03-28T03:42:33.283Z,1.70
2023-03-28T03:49:15.803Z,1.60
2023-03-28T03:56:02.859Z,1.60
2023-03-28T04:03:02.509Z,1.50
2023-03-28T04:09:45.218Z,1.50
2023-03-28T04:16:29.694Z,1.50
2023-03-28T04:23:25.970Z,1.40
2023-03-28T04:30:11.090Z,1.30
2023-03-28T04:37:15.202Z,1.20
2023-03-28T04:44:07.610Z,1.20
2023-03-28T04:50:57.977Z,1.20
2023-03-28T04:57:40.850Z,1.10
2023-03-28T05:04:26.601Z,1.10
2023-03-28T05:11:10.752Z,1.10
2023-03-28T05:17:53.391Z,1.10
2023-03-28T05:24:43.545Z,1.10
2023-03-28T05:31:34.922Z,1.20
2023-03-28T05:38:37.508Z,1.40
2023-03-28T05:45:26.777Z,1.50
2023-03-28T05:52:23.533Z,1.70
2023-03-28T05:59:06.823Z,1.90
2023-03-28T06:05:52.832Z,2.10
2023-03-28T06:12:43.757Z,2.10
2023-03-28T06:19:26.569Z,2.20
2023-03-28T06:26:10.865Z,4.60
2023-03-28T06:32:57.050Z,8.30
2023-03-28T06:39:39.476Z,11.20
2023-03-28T06:46:22.244Z,13.10
2023-03-28T06:53:04.635Z,14.80
2023-03-28T06:59:48.282Z,16.20
2023-03-28T07:06:36.895Z,17.20
2023-03-28T07:13:20.473Z,18.00
2023-03-28T07:20:14.129Z,18.40
2023-03-28T07:27:11.867Z,17.60
2023-03-28T07:33:58.125Z,18.50
2023-03-28T07:40:40.833Z,19.10
2023-03-28T07:47:23.555Z,18.90
2023-03-28T07:54:06.052Z,17.90
2023-03-28T08:00:48.575Z,19.70
2023-03-28T08:07:53.728Z,18.00
2023-03-28T08:14:36.369Z,17.60
2023-03-28T08:21:19.225Z,17.90
2023-03-28T08:28:01.861Z,19.00
2023-03-28T08:34:44.707Z,13.60
2023-03-28T08:41:49.888Z,13.80
2023-03-28T08:48:41.660Z,15.30
2023-03-28T08:55:36.789Z,14.30
2023-03-28T09:02:23.115Z,12.30
2023-03-28T09:09:17.644Z,11.80
2023-03-28T09:16:20.738Z,13.00
2023-03-28T09:23:42.746Z,13.70
2023-03-28T09:30:38.993Z,15.40
2023-03-28T09:37:27.898Z,13.00
2023-03-28T09:44:15.690Z,12.40
2023-03-28T09:51:26.988Z,11.10
2023-03-28T09:58:12.714Z,13.50
2023-03-28T10:05:44.036Z,15.40
2023-03-28T10:12:55.823Z,16.20
2023-03-28T10:19:42.653Z,16.10
2023-03-28T10:26:37.330Z,15.70
2023-03-28T10:33:46.201Z,16.30
2023-03-28T10:41:12.634Z,15.70
2023-03-28T10:48:19.558Z,18.30
2023-03-28T10:55:17.017Z,15.20
2023-03-28T11:02:32.006Z,13.40
2023-03-28T11:09:42.065Z,12.40
2023-03-28T11:16:54.256Z,10.90
2023-03-28T11:24:14.617Z,12.00
2023-03-28T11:31:14.611Z,12.50
2023-03-28T11:38:07.049Z,12.00
2023-03-28T11:45:09.075Z,11.30
2023-03-28T11:51:56.097Z,10.10
2023-03-28T11:58:43.528Z,10.20
2023-03-28T12:05:38.636Z,11.20
2023-03-28T12:12:32.001Z,10.90
2023-03-28T12:19:21.665Z,11.00
2023-03-28T12:26:37.127Z,11.40
2023-03-28T12:33:24.488Z,11.80
2023-03-28T12:40:44.136Z,11.70
2023-03-28T12:47:32.459Z,11.40
2023-03-28T12:54:15.515Z,11.10
2023-03-28T13:01:07.256Z,11.90
2023-03-28T13:08:05.990Z,11.50
2023-03-28T13:15:25.925Z,11.20
2023-03-28T13:22:26.953Z,11.20
2023-03-28T13:29:09.268Z,11.60
2023-03-28T13:35:57.724Z,11.80
2023-03-28T13:43:00.213Z,11.40
2023-03-28T13:49:51.934Z,12.00
2023-03-28T13:56:36.012Z,11.60
2023-03-28T14:03:18.464Z,11.80
2023-03-28T14:10:01.209Z,11.80
2023-03-28T14:16:45.117Z,12.10
2023-03-28T14:23:30.894Z,12.10
2023-03-28T14:30:21.513Z,12.20
2023-03-28T14:37:16.668Z,12.80
2023-03-28T14:43:59.952Z,12.10
2023-03-28T14:50:43.842Z,12.20
2023-03-28T14:57:26.645Z,11.50
2023-03-28T15:04:12.161Z,11.50
2023-03-28T15:10:56.818Z,11.30
2023-03-28T15:17:39.318Z,11.50
2023-03-28T15:24:22.511Z,11.10
2023-03-28T15:31:05.331Z,11.40
2023-03-28T15:37:48.003Z,11.40
2023-03-28T15:44:39.072Z,11.30
2023-03-28T15:51:21.484Z,11.20
2023-03-28T15:58:06.098Z,11.40
2023-03-28T16:05:28.671Z,11.10
2023-03-28T16:12:15.793Z,10.90
2023-03-28T16:18:58.335Z,11.00
2023-03-28T16:25:42.352Z,10.90
2023-03-28T16:32:25.011Z,11.10
2023-03-28T16:39:07.961Z,11.00
2023-03-28T16:45:50.429Z,10.70
2023-03-28T16:52:32.925Z,10.50
2023-03-28T16:59:15.428Z,10.70
2023-03-28T17:06:08.320Z,10.70
2023-03-28T17:12:51.215Z,10.50
2023-03-28T17:19:34.686Z,10.30
2023-03-28T17:26:17.660Z,10.30
2023-03-28T17:33:00.035Z,10.10
2023-03-28T17:39:42.553Z,10.00
2023-03-28T17:46:25.145Z,9.80
2023-03-28T17:53:07.547Z,9.70
2023-03-28T17:59:50.576Z,9.50
2023-03-28T18:06:33.723Z,9.40
2023-03-28T18:13:16.121Z,9.40
2023-03-28T18:26:41.991Z,9.40
2023-03-28T18:33:24.298Z,9.30
2023-03-28T18:40:07.601Z,9.30
2023-03-28T18:46:54.713Z,9.30
2023-03-28T18:53:37.851Z,9.20
2023-03-28T19:00:20.530Z,9.10
2023-03-28T19:07:03.448Z,8.80
2023-03-28T19:13:45.927Z,8.60
2023-03-28T19:20:28.528Z,8.70
2023-03-28T19:27:10.850Z,8.70
2023-03-28T19:33:53.127Z,8.60
2023-03-28T19:40:35.610Z,8.70
2023-03-28T19:47:19.244Z,8.80
2023-03-28T19:54:01.998Z,8.90
2023-03-28T20:00:44.465Z,8.90
2023-03-28T20:07:26.906Z,9.00
2023-03-28T20:14:09.811Z,8.90
2023-03-28T20:20:54.848Z,8.80
2023-03-28T20:27:37.376Z,8.90
2023-03-28T20:34:20.312Z,8.80
2023-03-28T20:41:02.986Z,8.90
2023-03-28T20:47:49.982Z,9.00
2023-03-28T20:54:32.583Z,9.00
2023-03-28T21:01:16.514Z,9.10
2023-03-28T21:07:59.161Z,9.10
2023-03-28T21:14:41.755Z,9.20
2023-03-28T21:21:24.205Z,9.20
2023-03-28T21:28:07.143Z,9.20
2023-03-28T21:34:56.372Z,9.30
2023-03-28T21:41:38.685Z,9.40
2023-03-28T21:48:21.095Z,9.40
2023-03-28T21:55:03.625Z,9.30
2023-03-28T22:01:45.966Z,9.30
2023-03-28T22:08:28.316Z,9.40
2023-03-28T22:15:14.416Z,9.20
2023-03-28T22:22:00.613Z,9.20
2023-03-28T22:28:42.943Z,9.20
2023-03-28T22:35:25.298Z,9.00
2023-03-28T22:42:07.653Z,9.10
2023-03-28T22:48:54.105Z,9.20
2023-03-28T22:55:36.689Z,9.20
2023-03-28T23:02:19.445Z,9.20
2023-03-28T23:09:01.753Z,9.10
2023-03-28T23:15:44.717Z,8.90
2023-03-28T23:22:27.175Z,8.70
2023-03-28T23:29:09.453Z,8.60
2023-03-28T23:35:51.834Z,8.40
2023-03-28T23:42:34.176Z,8.10
2023-03-28T23:49:17.661Z,8.00
2023-03-28T23:56:00.206Z,8.00
